createdAt,value
2023-01-25T00:00:47.052Z,1023.72
2023-01-25T00:01:47.086Z,1023.70
2023-01-25T00:02:47.036Z,1023.69
2023-01-25T00:03:47.030Z,1023.68
2023-01-25T00:04:46.986Z,1023.67
2023-01-25T00:05:46.995Z,1023.67
2023-01-25T00:06:46.952Z,1023.64
2023-01-25T00:07:46.949Z,1023.64
2023-01-25T00:08:46.995Z,1023.64
2023-01-25T00:09:46.939Z,1023.64
2023-01-25T00:10:46.983Z,1023.63
2023-01-25T00:11:46.913Z,1023.62
2023-01-25T00:12:46.884Z,1023.61
2023-01-25T00:13:46.886Z,1023.59
2023-01-25T00:14:46.893Z,1023.60
2023-01-25T00:15:46.870Z,1023.59
2023-01-25T00:16:46.909Z,1023.58
2023-01-25T00:17:46.851Z,1023.59
2023-01-25T00:18:46.837Z,1023.56
2023-01-25T00:19:46.809Z,1023.54
2023-01-25T00:20:46.844Z,1023.52
2023-01-25T00:21:46.844Z,1023.50
2023-01-25T00:22:46.814Z,1023.49
2023-01-25T00:23:46.830Z,1023.48
2023-01-25T00:24:46.805Z,1023.49
2023-01-25T00:25:46.801Z,1023.51
2023-01-25T00:26:46.758Z,1023.51
2023-01-25T00:27:46.726Z,1023.53
2023-01-25T00:28:46.742Z,1023.54
2023-01-25T00:29:46.710Z,1023.52
2023-01-25T00:30:46.717Z,1023.52
2023-01-25T00:31:46.821Z,1023.52
2023-01-25T00:32:46.837Z,1023.50
2023-01-25T00:33:46.674Z,1023.47
2023-01-25T00:34:46.678Z,1023.47
2023-01-25T00:35:46.648Z,1023.47
2023-01-25T00:36:46.652Z,1023.48
2023-01-25T00:37:46.671Z,1023.47
2023-01-25T00:38:46.638Z,1023.47
2023-01-25T00:39:46.609Z,1023.46
2023-01-25T00:40:46.619Z,1023.44
2023-01-25T00:41:46.597Z,1023.43
2023-01-25T00:42:46.606Z,1023.43
2023-01-25T00:43:46.566Z,1023.42
2023-01-25T00:44:46.576Z,1023.40
2023-01-25T00:45:46.553Z,1023.40
2023-01-25T00:46:46.837Z,1023.40
2023-01-25T00:47:46.526Z,1023.40
2023-01-25T00:48:46.548Z,1023.39
2023-01-25T00:49:46.499Z,1023.37
2023-01-25T00:50:46.511Z,1023.38
2023-01-25T00:51:46.479Z,1023.39
2023-01-25T00:52:46.484Z,1023.37
2023-01-25T00:53:46.467Z,1023.37
2023-01-25T00:54:46.497Z,1023.36
2023-01-25T00:55:46.441Z,1023.35
2023-01-25T00:56:46.450Z,1023.35
2023-01-25T00:57:46.426Z,1023.35
2023-01-25T00:58:46.477Z,1023.36
2023-01-25T00:59:46.406Z,1023.38
2023-01-25T01:00:46.416Z,1023.38
2023-01-25T01:01:46.399Z,1023.39
2023-01-25T01:02:46.395Z,1023.40
2023-01-25T01:03:46.352Z,1023.38
2023-01-25T01:04:46.442Z,1023.39
2023-01-25T01:05:46.360Z,1023.39
2023-01-25T01:06:46.339Z,1023.41
2023-01-25T01:07:46.321Z,1023.42
2023-01-25T01:08:46.340Z,1023.42
2023-01-25T01:09:46.302Z,1023.42
2023-01-25T01:10:46.303Z,1023.43
2023-01-25T01:11:46.295Z,1023.43
2023-01-25T01:12:46.295Z,1023.42
2023-01-25T01:13:46.260Z,1023.41
2023-01-25T01:14:46.282Z,1023.41
2023-01-25T01:15:46.239Z,1023.41
2023-01-25T01:16:46.348Z,1023.42
2023-01-25T01:17:46.218Z,1023.42
2023-01-25T01:18:46.219Z,1023.43
2023-01-25T01:19:46.195Z,1023.43
2023-01-25T01:20:46.243Z,1023.42
2023-01-25T01:21:46.181Z,1023.41
2023-01-25T01:22:46.175Z,1023.40
2023-01-25T01:23:46.229Z,1023.39
2023-01-25T01:24:46.154Z,1023.39
2023-01-25T01:25:46.133Z,1023.40
2023-01-25T01:26:46.136Z,1023.40
2023-01-25T01:27:46.107Z,1023.40
2023-01-25T01:28:46.151Z,1023.40
2023-01-25T01:29:46.110Z,1023.38
2023-01-25T01:30:46.105Z,1023.38
2023-01-25T01:31:46.221Z,1023.38
2023-01-25T01:32:46.274Z,1023.37
2023-01-25T01:33:46.050Z,1023.36
2023-01-25T01:34:46.083Z,1023.35
2023-01-25T01:35:46.031Z,1023.34
2023-01-25T01:36:46.058Z,1023.33
2023-01-25T01:37:46.013Z,1023.30
2023-01-25T01:38:46.070Z,1023.28
2023-01-25T01:39:45.995Z,1023.27
2023-01-25T01:40:45.990Z,1023.27
2023-01-25T01:41:45.981Z,1023.28
2023-01-25T01:42:46.039Z,1023.29
2023-01-25T01:43:46.082Z,1023.30
2023-01-25T01:44:46.015Z,1023.30
2023-01-25T01:45:45.930Z,1023.30
2023-01-25T01:46:45.933Z,1023.32
2023-01-25T01:47:45.986Z,1023.30
2023-01-25T01:48:45.929Z,1023.31
2023-01-25T01:49:45.883Z,1023.29
2023-01-25T01:50:45.887Z,1023.30
2023-01-25T01:51:45.867Z,1023.28
2023-01-25T01:52:45.866Z,1023.25
2023-01-25T01:53:45.848Z,1023.23
2023-01-25T01:54:45.872Z,1023.20
2023-01-25T01:55:45.824Z,1023.18
2023-01-25T01:56:45.837Z,1023.17
2023-01-25T01:57:45.819Z,1023.17
2023-01-25T01:58:45.812Z,1023.18
2023-01-25T01:59:45.782Z,1023.17
2023-01-25T02:00:45.803Z,1023.16
2023-01-25T02:01:45.861Z,1023.15
2023-01-25T02:02:45.796Z,1023.13
2023-01-25T02:03:45.741Z,1023.12
2023-01-25T02:04:45.748Z,1023.13
2023-01-25T02:05:45.748Z,1023.13
2023-01-25T02:06:45.744Z,1023.14
2023-01-25T02:07:45.696Z,1023.13
2023-01-25T02:08:45.719Z,1023.12
2023-01-25T02:09:45.685Z,1023.11
2023-01-25T02:10:45.686Z,1023.11
2023-01-25T02:11:45.683Z,1023.10
2023-01-25T02:12:45.755Z,1023.09
2023-01-25T02:13:45.647Z,1023.09
2023-01-25T02:14:45.643Z,1023.08
2023-01-25T02:15:45.625Z,1023.10
2023-01-25T02:16:45.637Z,1023.07
2023-01-25T02:17:45.621Z,1023.09
2023-01-25T02:18:45.608Z,1023.07
2023-01-25T02:19:45.579Z,1023.06
2023-01-25T02:20:45.597Z,1023.07
2023-01-25T02:21:45.562Z,1023.06
2023-01-25T02:22:45.575Z,1023.06
2023-01-25T02:23:45.639Z,1023.07
2023-01-25T02:24:45.532Z,1023.06
2023-01-25T02:25:45.522Z,1023.06
2023-01-25T02:26:45.554Z,1023.06
2023-01-25T02:27:45.498Z,1023.07
2023-01-25T02:28:45.501Z,1023.06
2023-01-25T02:29:45.496Z,1023.07
2023-01-25T07:00:54.913Z,1021.80
2023-01-25T07:01:55.983Z,1021.80
2023-01-25T07:02:56.487Z,1021.79
2023-01-25T07:03:55.850Z,1021.79
2023-01-25T07:04:55.877Z,1021.80
2023-01-25T07:05:55.878Z,1021.79
2023-01-25T07:06:55.847Z,1021.79
2023-01-25T07:07:55.823Z,1021.79
2023-01-25T07:08:55.819Z,1021.78
2023-01-25T07:09:55.796Z,1021.79
2023-01-25T07:10:55.819Z,1021.79
2023-01-25T07:11:55.787Z,1021.80
2023-01-25T07:12:55.768Z,1021.79
2023-01-25T07:13:55.761Z,1021.78
2023-01-25T07:14:55.795Z,1021.77
2023-01-25T07:15:55.733Z,1021.78
2023-01-25T07:16:55.759Z,1021.78
2023-01-25T07:17:57.931Z,1021.77
2023-01-25T07:18:55.739Z,1021.80
2023-01-25T07:19:55.702Z,1021.79
2023-01-25T07:20:55.714Z,1021.77
2023-01-25T07:21:55.676Z,1021.76
2023-01-25T07:22:55.673Z,1021.76
2023-01-25T07:23:55.733Z,1021.77
2023-01-25T07:24:55.683Z,1021.77
2023-01-25T07:25:55.645Z,1021.78
2023-01-25T07:26:55.651Z,1021.78
2023-01-25T07:27:55.610Z,1021.79
2023-01-25T07:28:55.640Z,1021.80
2023-01-25T07:29:55.593Z,1021.80
2023-01-25T07:30:55.611Z,1021.81
2023-01-25T07:31:55.645Z,1021.83
2023-01-25T07:32:55.597Z,1021.83
2023-01-25T07:33:55.567Z,1021.84
2023-01-25T07:34:55.568Z,1021.84
2023-01-25T07:35:55.536Z,1021.82
2023-01-25T07:36:55.550Z,1021.80
2023-01-25T07:37:55.510Z,1021.78
2023-01-25T07:38:55.522Z,1021.77
2023-01-25T07:39:55.502Z,1021.77
2023-01-25T07:40:55.478Z,1021.76
2023-01-25T07:41:55.455Z,1021.77
2023-01-25T07:42:55.489Z,1021.76
2023-01-25T07:43:55.512Z,1021.76
2023-01-25T07:44:55.439Z,1021.74
2023-01-25T07:45:55.429Z,1021.73
2023-01-25T07:46:55.425Z,1021.73
2023-01-25T07:47:55.398Z,1021.72
2023-01-25T07:48:55.442Z,1021.73
2023-01-25T07:49:55.383Z,1021.73
2023-01-25T07:50:55.376Z,1021.73
2023-01-25T07:51:55.369Z,1021.70
2023-01-25T07:52:55.368Z,1021.70
2023-01-25T07:53:55.344Z,1021.71
2023-01-25T07:54:55.387Z,1021.68
2023-01-25T07:55:55.329Z,1021.68
2023-01-25T07:56:55.346Z,1021.68
2023-01-25T07:57:55.309Z,1021.67
2023-01-25T07:58:55.298Z,1021.68
2023-01-25T07:59:55.294Z,1021.69
2023-01-25T08:00:55.282Z,1021.70
2023-01-25T08:01:55.264Z,1021.70
2023-01-25T08:02:55.259Z,1021.68
2023-01-25T08:03:55.244Z,1021.69
2023-01-25T08:04:55.242Z,1021.71
2023-01-25T08:05:55.228Z,1021.72
2023-01-25T08:06:55.243Z,1021.72
2023-01-25T08:07:55.233Z,1021.72
2023-01-25T08:08:55.253Z,1021.71
2023-01-25T08:09:55.171Z,1021.70
2023-01-25T08:10:55.182Z,1021.71
2023-01-25T08:11:55.152Z,1021.72
2023-01-25T08:12:55.243Z,1021.72
2023-01-25T08:13:55.147Z,1021.72
2023-01-25T08:14:55.174Z,1021.72
2023-01-25T08:15:55.114Z,1021.73
2023-01-25T08:16:55.119Z,1021.73
2023-01-25T08:17:55.093Z,1021.73
2023-01-25T08:18:55.121Z,1021.73
2023-01-25T08:19:55.101Z,1021.72
2023-01-25T08:20:55.092Z,1021.73
2023-01-25T08:21:55.056Z,1021.74
2023-01-25T08:22:55.077Z,1021.75
2023-01-25T08:23:55.059Z,1021.75
2023-01-25T08:24:55.048Z,1021.76
2023-01-25T08:25:55.042Z,1021.76
2023-01-25T08:26:55.078Z,1021.78
2023-01-25T08:27:54.986Z,1021.76
2023-01-25T08:28:54.998Z,1021.75
2023-01-25T08:29:54.976Z,1021.73
2023-01-25T08:30:57.448Z,1021.73
2023-01-25T08:31:54.958Z,1021.72
2023-01-25T08:32:55.051Z,1021.72
2023-01-25T08:33:54.921Z,1021.72
2023-01-25T08:34:54.965Z,1021.71
2023-01-25T08:35:54.925Z,1021.70
2023-01-25T08:36:54.924Z,1021.69
2023-01-25T08:37:54.885Z,1021.69
2023-01-25T08:38:54.914Z,1021.67
2023-01-25T08:39:54.872Z,1021.66
2023-01-25T08:40:54.895Z,1021.64
2023-01-25T08:41:54.843Z,1021.62
2023-01-25T08:42:54.857Z,1021.61
2023-01-25T08:43:54.867Z,1021.60
2023-01-25T08:44:54.843Z,1021.61
2023-01-25T08:45:54.829Z,1021.62
2023-01-25T08:46:54.814Z,1021.62
2023-01-25T08:47:54.788Z,1021.60
2023-01-25T08:48:54.789Z,1021.59
2023-01-25T08:49:54.795Z,1021.59
2023-01-25T08:50:54.790Z,1021.59
2023-01-25T08:51:54.760Z,1021.58
2023-01-25T08:52:54.750Z,1021.58
2023-01-25T08:53:54.733Z,1021.56
2023-01-25T08:54:54.732Z,1021.55
2023-01-25T08:55:54.721Z,1021.52
2023-01-25T08:56:54.732Z,1021.50
2023-01-25T08:57:56.521Z,1021.50
2023-01-25T08:58:54.704Z,1021.49
2023-01-25T08:59:54.663Z,1021.49
2023-01-25T09:00:54.661Z,1021.49
2023-01-25T09:01:54.658Z,1021.49
2023-01-25T09:02:54.682Z,1021.48
2023-01-25T09:03:54.676Z,1021.49
2023-01-25T09:04:54.619Z,1021.49
2023-01-25T09:05:54.609Z,1021.48
2023-01-25T09:06:54.626Z,1021.46
2023-01-25T09:07:54.609Z,1021.46
2023-01-25T09:08:54.599Z,1021.45
2023-01-25T09:09:54.583Z,1021.45
2023-01-25T09:10:54.576Z,1021.45
2023-01-25T09:11:54.539Z,1021.44
2023-01-25T09:12:54.542Z,1021.43
2023-01-25T09:13:54.517Z,1021.44
2023-01-25T09:14:54.531Z,1021.46
2023-01-25T09:15:54.523Z,1021.46
2023-01-25T09:16:54.512Z,1021.48
2023-01-25T09:17:54.471Z,1021.47
2023-01-25T09:18:54.485Z,1021.47
2023-01-25T09:19:54.494Z,1021.46
2023-01-25T09:20:54.469Z,1021.44
2023-01-25T09:21:54.495Z,1021.43
2023-01-25T09:22:55.166Z,1021.41
2023-01-25T09:24:09.976Z,1021.40
2023-01-25T09:24:54.457Z,1021.39
2023-01-25T09:25:54.391Z,1021.38
2023-01-25T09:26:59.775Z,1021.37
2023-01-25T09:27:54.402Z,1021.35
2023-01-25T09:28:54.549Z,1021.35
2023-01-25T09:30:01.689Z,1021.34
2023-01-25T09:31:14.541Z,1021.35
2023-01-25T09:31:54.446Z,1021.33
2023-01-25T09:32:54.473Z,1021.32
2023-01-25T09:33:54.481Z,1021.32
2023-01-25T09:34:54.321Z,1021.32
2023-01-25T09:35:54.287Z,1021.32
2023-01-25T09:36:54.292Z,1021.32
2023-01-25T09:37:54.275Z,1021.33
2023-01-25T09:38:54.285Z,1021.33
2023-01-25T09:39:54.284Z,1021.33
2023-01-25T09:40:54.257Z,1021.33
2023-01-25T09:41:54.737Z,1021.32
2023-01-25T09:42:54.246Z,1021.33
2023-01-25T09:43:54.815Z,1021.34
2023-01-25T09:44:55.068Z,1021.32
2023-01-25T09:45:54.180Z,1021.33
2023-01-25T09:46:54.195Z,1021.34
2023-01-25T09:47:54.161Z,1021.34
2023-01-25T09:49:06.328Z,1021.34
2023-01-25T09:49:54.144Z,1021.34
2023-01-25T09:50:54.186Z,1021.34
2023-01-25T09:51:54.123Z,1021.33
2023-01-25T09:52:54.165Z,1021.32
2023-01-25T09:53:54.125Z,1021.31
2023-01-25T09:54:54.124Z,1021.32
2023-01-25T09:55:54.103Z,1021.35
2023-01-25T09:56:54.086Z,1021.36
2023-01-25T09:57:54.190Z,1021.36
2023-01-25T09:58:54.076Z,1021.37
2023-01-25T09:59:54.086Z,1021.35
2023-01-25T10:00:54.060Z,1021.34
2023-01-25T10:01:54.095Z,1021.31
2023-01-25T10:02:54.063Z,1021.30
2023-01-25T10:03:54.015Z,1021.28
2023-01-25T10:04:54.003Z,1021.26
2023-01-25T10:05:54.010Z,1021.24
2023-01-25T10:07:00.587Z,1021.22
2023-01-25T10:07:53.957Z,1021.21
2023-01-25T10:08:53.964Z,1021.20
2023-01-25T10:09:53.976Z,1021.19
2023-01-25T10:10:53.946Z,1021.19
2023-01-25T10:11:53.920Z,1021.17
2023-01-25T10:12:53.940Z,1021.16
2023-01-25T10:13:53.916Z,1021.13
2023-01-25T10:14:53.911Z,1021.14
2023-01-25T10:15:53.995Z,1021.12
2023-01-25T10:16:54.013Z,1021.11
2023-01-25T10:17:53.852Z,1021.10
2023-01-25T10:18:53.880Z,1021.06
2023-01-25T10:19:53.871Z,1021.05
2023-01-25T10:20:53.844Z,1021.04
2023-01-25T10:21:53.843Z,1021.03
2023-01-25T10:22:53.988Z,1021.01
2023-01-25T10:23:53.845Z,1020.99
2023-01-25T10:24:53.843Z,1020.98
2023-01-25T10:25:53.797Z,1020.97
2023-01-25T10:26:53.771Z,1020.96
2023-01-25T10:27:53.772Z,1020.95
2023-01-25T10:28:53.759Z,1020.93
2023-01-25T10:29:53.741Z,1020.92
2023-01-25T10:30:53.855Z,1020.91
2023-01-25T10:31:53.765Z,1020.90
2023-01-25T10:32:56.222Z,1020.89
2023-01-25T10:33:53.693Z,1020.87
2023-01-25T10:34:57.011Z,1020.85
2023-01-25T10:35:53.707Z,1020.85
2023-01-25T10:36:53.683Z,1020.84
2023-01-25T10:37:53.654Z,1020.82
2023-01-25T10:38:53.654Z,1020.81
2023-01-25T10:39:53.648Z,1020.80
2023-01-25T10:40:53.624Z,1020.78
2023-01-25T10:41:53.680Z,1020.75
2023-01-25T10:42:53.601Z,1020.73
2023-01-25T10:43:53.623Z,1020.72
2023-01-25T10:44:53.584Z,1020.71
2023-01-25T10:45:53.582Z,1020.70
2023-01-25T10:46:53.642Z,1020.69
2023-01-25T10:47:53.583Z,1020.68
2023-01-25T10:48:53.530Z,1020.65
2023-01-25T10:49:53.566Z,1020.64
2023-01-25T10:50:53.528Z,1020.61
2023-01-25T10:51:53.557Z,1020.59
2023-01-25T10:52:53.515Z,1020.55
2023-01-25T10:53:53.546Z,1020.54
2023-01-25T10:54:53.487Z,1020.53
2023-01-25T10:55:53.496Z,1020.50
2023-01-25T10:56:53.445Z,1020.49
2023-01-25T10:57:53.454Z,1020.47
2023-01-25T10:58:53.424Z,1020.46
2023-01-25T10:59:53.432Z,1020.45
2023-01-25T11:00:53.417Z,1020.44
2023-01-25T11:01:53.491Z,1020.43
2023-01-25T11:02:53.508Z,1020.42
2023-01-25T11:03:53.395Z,1020.41
2023-01-25T11:04:53.362Z,1020.40
2023-01-25T11:05:53.372Z,1020.40
2023-01-25T11:06:53.380Z,1020.39
2023-01-25T11:07:53.370Z,1020.38
2023-01-25T11:08:53.327Z,1020.36
2023-01-25T11:09:53.329Z,1020.34
2023-01-25T11:10:53.298Z,1020.32
2023-01-25T11:11:53.313Z,1020.30
2023-01-25T11:12:53.298Z,1020.27
2023-01-25T11:13:53.301Z,1020.25
2023-01-25T11:14:53.273Z,1020.25
2023-01-25T11:15:53.388Z,1020.24
2023-01-25T11:16:53.252Z,1020.22
2023-01-25T11:17:53.244Z,1020.20
2023-01-25T11:18:53.242Z,1020.20
2023-01-25T11:19:53.252Z,1020.19
2023-01-25T11:20:53.202Z,1020.19
2023-01-25T11:21:53.211Z,1020.17
2023-01-25T11:22:53.183Z,1020.17
2023-01-25T11:23:53.240Z,1020.15
2023-01-25T11:24:53.173Z,1020.13
2023-01-25T11:25:53.201Z,1020.11
2023-01-25T11:26:53.149Z,1020.10
2023-01-25T11:27:53.145Z,1020.10
2023-01-25T11:28:53.113Z,1020.09
2023-01-25T11:29:53.106Z,1020.09
2023-01-25T11:30:53.187Z,1020.08
2023-01-25T11:31:53.161Z,1020.07
2023-01-25T11:32:53.078Z,1020.06
2023-01-25T11:33:53.092Z,1020.05
2023-01-25T11:34:53.055Z,1020.05
2023-01-25T11:35:53.069Z,1020.02
2023-01-25T11:36:53.073Z,1020.00
2023-01-25T11:37:53.063Z,1019.98
2023-01-25T11:38:53.028Z,1019.96
2023-01-25T11:39:53.002Z,1019.92
2023-01-25T11:40:53.003Z,1019.90
2023-01-25T11:41:53.015Z,1019.87
2023-01-25T11:42:52.989Z,1019.84
2023-01-25T11:43:52.979Z,1019.82
2023-01-25T11:44:52.968Z,1019.79
2023-01-25T11:45:52.966Z,1019.76
2023-01-25T11:46:52.952Z,1019.73
2023-01-25T11:47:52.937Z,1019.71
2023-01-25T11:48:52.936Z,1019.70
2023-01-25T11:49:52.942Z,1019.69
2023-01-25T11:50:52.893Z,1019.67
2023-01-25T11:51:54.704Z,1019.64
2023-01-25T11:52:52.914Z,1019.62
2023-01-25T11:53:52.882Z,1019.61
2023-01-25T11:54:52.913Z,1019.60
2023-01-25T11:55:52.857Z,1019.57
2023-01-25T11:56:52.835Z,1019.56
2023-01-25T11:57:52.838Z,1019.54
2023-01-25T11:58:52.835Z,1019.52
2023-01-25T11:59:52.819Z,1019.49
2023-01-25T12:00:52.815Z,1019.45
2023-01-25T12:01:52.869Z,1019.42
2023-01-25T12:02:52.808Z,1019.39
2023-01-25T12:03:52.794Z,1019.37
2023-01-25T12:04:52.743Z,1019.34
2023-01-25T12:05:52.748Z,1019.31
2023-01-25T12:06:52.746Z,1019.29
2023-01-25T12:07:52.739Z,1019.27
2023-01-25T12:08:52.703Z,1019.25
2023-01-25T12:09:52.702Z,1019.23
2023-01-25T12:10:52.684Z,1019.22
2023-01-25T12:11:52.693Z,1019.21
2023-01-25T12:12:52.688Z,1019.18
2023-01-25T12:13:52.703Z,1019.18
2023-01-25T12:14:52.667Z,1019.17
2023-01-25T12:15:52.684Z,1019.16
2023-01-25T12:16:52.618Z,1019.15
2023-01-25T12:17:52.631Z,1019.15
2023-01-25T12:18:52.627Z,1019.14
2023-01-25T12:19:52.684Z,1019.12
2023-01-25T12:20:52.706Z,1019.11
2023-01-25T12:21:52.604Z,1019.10
2023-01-25T12:22:52.562Z,1019.07
2023-01-25T12:23:52.620Z,1019.05
2023-01-25T12:24:52.565Z,1019.01
2023-01-25T12:25:52.577Z,1018.98
2023-01-25T12:26:52.525Z,1018.96
2023-01-25T12:27:52.661Z,1018.94
2023-01-25T12:28:52.507Z,1018.92
2023-01-25T12:29:52.550Z,1018.89
2023-01-25T12:30:52.560Z,1018.86
2023-01-25T12:31:52.511Z,1018.85
2023-01-25T12:32:53.898Z,1018.83
2023-01-25T12:33:52.465Z,1018.82
2023-01-25T12:34:52.536Z,1018.82
2023-01-25T12:35:52.448Z,1018.82
2023-01-25T12:36:52.495Z,1018.81
2023-01-25T12:37:52.514Z,1018.79
2023-01-25T12:38:52.393Z,1018.77
2023-01-25T12:39:52.473Z,1018.74
2023-01-25T12:40:52.402Z,1018.73
2023-01-25T12:41:52.379Z,1018.71
2023-01-25T12:42:52.345Z,1018.72
2023-01-25T12:43:52.392Z,1018.72
2023-01-25T12:44:52.336Z,1018.70
2023-01-25T12:45:52.341Z,1018.69
2023-01-25T12:46:52.351Z,1018.67
2023-01-25T12:47:52.316Z,1018.65
2023-01-25T12:48:52.287Z,1018.62
2023-01-25T12:49:52.304Z,1018.60
2023-01-25T12:50:52.304Z,1018.60
2023-01-25T12:51:52.267Z,1018.61
2023-01-25T12:52:52.276Z,1018.61
2023-01-25T12:53:52.270Z,1018.62
2023-01-25T12:54:52.233Z,1018.62
2023-01-25T12:55:52.363Z,1018.61
2023-01-25T12:56:52.227Z,1018.60
2023-01-25T12:57:52.208Z,1018.60
2023-01-25T12:58:52.183Z,1018.58
2023-01-25T12:59:52.196Z,1018.57
2023-01-25T13:00:52.246Z,1018.56
2023-01-25T13:01:52.198Z,1018.52
2023-01-25T13:02:52.153Z,1018.52
2023-01-25T13:03:52.143Z,1018.51
2023-01-25T13:04:52.130Z,1018.48
2023-01-25T13:05:52.154Z,1018.46
2023-01-25T13:06:52.118Z,1018.44
2023-01-25T13:07:52.118Z,1018.43
2023-01-25T13:08:52.080Z,1018.40
2023-01-25T13:09:52.080Z,1018.38
2023-01-25T13:10:52.060Z,1018.35
2023-01-25T13:11:52.079Z,1018.32
2023-01-25T13:12:52.048Z,1018.30
2023-01-25T13:13:52.074Z,1018.27
2023-01-25T13:14:52.027Z,1018.24
2023-01-25T13:15:52.196Z,1018.22
2023-01-25T13:17:08.491Z,1018.18
2023-01-25T13:17:52.048Z,1018.16
2023-01-25T13:18:51.975Z,1018.13
2023-01-25T13:19:51.984Z,1018.11
2023-01-25T13:20:51.953Z,1018.10
2023-01-25T13:21:51.978Z,1018.07
2023-01-25T13:22:51.951Z,1018.05
2023-01-25T13:23:52.022Z,1018.01
2023-01-25T13:24:51.913Z,1017.99
2023-01-25T13:25:51.918Z,1017.95
2023-01-25T13:26:51.921Z,1017.91
2023-01-25T13:27:51.929Z,1017.89
2023-01-25T13:28:51.872Z,1017.86
2023-01-25T13:29:51.876Z,1017.84
2023-01-25T13:30:51.896Z,1017.81
2023-01-25T13:31:53.375Z,1017.78
2023-01-25T13:32:51.828Z,1017.75
2023-01-25T13:33:51.840Z,1017.75
2023-01-25T13:34:51.822Z,1017.73
2023-01-25T13:35:51.863Z,1017.72
2023-01-25T13:36:51.801Z,1017.72
2023-01-25T13:37:51.808Z,1017.73
2023-01-25T13:38:51.802Z,1017.74
2023-01-25T13:39:51.785Z,1017.74
2023-01-25T13:40:51.764Z,1017.73
2023-01-25T13:41:51.764Z,1017.74
2023-01-25T13:42:51.739Z,1017.73
2023-01-25T13:43:51.749Z,1017.70
2023-01-25T13:44:52.026Z,1017.71
2023-01-25T13:45:51.754Z,1017.70
2023-01-25T13:46:51.685Z,1017.69
2023-01-25T13:47:51.709Z,1017.67
2023-01-25T13:48:51.693Z,1017.64
2023-01-25T13:49:51.743Z,1017.61
2023-01-25T13:50:51.656Z,1017.58
2023-01-25T13:51:51.651Z,1017.56
2023-01-25T13:52:51.630Z,1017.56
2023-01-25T13:53:51.635Z,1017.55
2023-01-25T13:54:51.632Z,1017.55
2023-01-25T13:55:51.610Z,1017.54
2023-01-25T13:56:51.601Z,1017.54
2023-01-25T13:57:51.644Z,1017.54
2023-01-25T13:58:51.602Z,1017.53
2023-01-25T13:59:54.267Z,1017.53
2023-01-25T14:00:51.599Z,1017.51
2023-01-25T14:01:51.670Z,1017.49
2023-01-25T14:02:51.523Z,1017.47
2023-01-25T14:03:51.565Z,1017.45
2023-01-25T14:04:51.512Z,1017.43
2023-01-25T14:05:51.526Z,1017.42
2023-01-25T14:06:51.484Z,1017.42
2023-01-25T14:07:51.487Z,1017.42
2023-01-25T14:08:51.470Z,1017.42
2023-01-25T14:09:51.489Z,1017.42
2023-01-25T14:10:51.447Z,1017.40
2023-01-25T14:11:51.455Z,1017.37
2023-01-25T14:12:51.424Z,1017.36
2023-01-25T14:13:51.443Z,1017.32
2023-01-25T14:14:51.448Z,1017.30
2023-01-25T14:15:51.423Z,1017.28
2023-01-25T14:16:51.392Z,1017.27
2023-01-25T14:17:51.420Z,1017.26
2023-01-25T14:18:51.362Z,1017.25
2023-01-25T14:19:51.389Z,1017.23
2023-01-25T14:20:51.365Z,1017.22
2023-01-25T14:21:51.350Z,1017.21
2023-01-25T14:22:51.327Z,1017.19
2023-01-25T14:23:51.386Z,1017.18
2023-01-25T14:24:51.300Z,1017.17
2023-01-25T14:25:51.348Z,1017.16
2023-01-25T14:26:51.273Z,1017.15
2023-01-25T14:27:51.299Z,1017.14
2023-01-25T14:28:59.534Z,1017.13
2023-01-25T14:29:51.289Z,1017.11
2023-01-25T14:30:51.255Z,1017.10
2023-01-25T14:31:51.362Z,1017.10
2023-01-25T14:32:51.214Z,1017.10
2023-01-25T14:33:51.215Z,1017.09
2023-01-25T14:34:51.199Z,1017.08
2023-01-25T14:35:57.392Z,1017.07
2023-01-25T14:36:51.186Z,1017.05
2023-01-25T14:37:51.182Z,1017.03
2023-01-25T14:38:51.206Z,1017.01
2023-01-25T14:39:51.157Z,1017.00
2023-01-25T14:40:51.152Z,1016.99
2023-01-25T14:42:00.505Z,1016.97
2023-01-25T14:42:51.139Z,1016.94
2023-01-25T14:43:51.127Z,1016.92
2023-01-25T14:44:51.116Z,1016.88
2023-01-25T14:45:51.155Z,1016.85
2023-01-25T14:46:51.104Z,1016.83
2023-01-25T14:47:59.033Z,1016.80
2023-01-25T14:48:51.071Z,1016.78
2023-01-25T14:49:51.064Z,1016.76
2023-01-25T14:50:51.055Z,1016.75
2023-01-25T14:51:51.034Z,1016.74
2023-01-25T14:52:51.036Z,1016.73
2023-01-25T14:53:51.007Z,1016.73
2023-01-25T14:54:51.039Z,1016.73
2023-01-25T14:55:51.003Z,1016.74
2023-01-25T14:56:50.991Z,1016.75
2023-01-25T14:57:50.980Z,1016.76
2023-01-25T14:58:59.565Z,1016.77
2023-01-25T14:59:50.952Z,1016.77
2023-01-25T15:00:50.983Z,1016.76
2023-01-25T15:01:50.917Z,1016.75
2023-01-25T15:02:50.937Z,1016.73
2023-01-25T15:03:50.901Z,1016.72
2023-01-25T15:04:50.921Z,1016.70
2023-01-25T15:05:50.879Z,1016.67
2023-01-25T15:06:50.910Z,1016.65
2023-01-25T15:07:50.874Z,1016.62
2023-01-25T15:08:50.944Z,1016.59
2023-01-25T15:09:50.846Z,1016.57
2023-01-25T15:10:50.847Z,1016.56
2023-01-25T15:11:50.819Z,1016.55
2023-01-25T15:12:51.288Z,1016.55
2023-01-25T15:13:50.832Z,1016.55
2023-01-25T15:14:50.799Z,1016.55
2023-01-25T15:15:50.810Z,1016.55
2023-01-25T15:16:50.840Z,1016.55
2023-01-25T15:17:50.774Z,1016.54
2023-01-25T15:18:50.759Z,1016.53
2023-01-25T15:19:50.751Z,1016.51
2023-01-25T15:20:50.735Z,1016.49
2023-01-25T15:21:50.737Z,1016.48
2023-01-25T15:22:50.716Z,1016.47
2023-01-25T15:23:50.724Z,1016.46
2023-01-25T15:24:58.201Z,1016.45
2023-01-25T15:25:50.690Z,1016.44
2023-01-25T15:26:50.719Z,1016.43
2023-01-25T15:27:51.156Z,1016.43
2023-01-25T15:28:50.657Z,1016.43
2023-01-25T15:29:50.628Z,1016.44
2023-01-25T15:30:50.713Z,1016.43
2023-01-25T15:31:50.629Z,1016.44
2023-01-25T15:32:50.611Z,1016.43
2023-01-25T15:33:50.617Z,1016.41
2023-01-25T15:34:50.604Z,1016.41
2023-01-25T15:35:50.607Z,1016.40
2023-01-25T15:36:50.579Z,1016.38
2023-01-25T15:37:50.606Z,1016.38
2023-01-25T15:38:50.567Z,1016.36
2023-01-25T15:39:50.533Z,1016.35
2023-01-25T15:40:50.565Z,1016.33
2023-01-25T15:41:50.519Z,1016.31
2023-01-25T15:42:50.572Z,1016.30
2023-01-25T15:43:50.495Z,1016.30
2023-01-25T15:44:50.533Z,1016.30
2023-01-25T15:45:50.532Z,1016.30
2023-01-25T15:46:50.481Z,1016.30
2023-01-25T15:47:50.453Z,1016.31
2023-01-25T15:48:50.512Z,1016.32
2023-01-25T15:49:50.426Z,1016.31
2023-01-25T15:50:50.431Z,1016.30
2023-01-25T15:51:50.408Z,1016.31
2023-01-25T15:52:50.421Z,1016.31
2023-01-25T15:53:50.387Z,1016.32
2023-01-25T15:54:56.157Z,1016.32
2023-01-25T15:55:50.382Z,1016.32
2023-01-25T15:56:50.375Z,1016.32
2023-01-25T15:57:50.363Z,1016.31
2023-01-25T15:58:50.393Z,1016.30
2023-01-25T15:59:50.350Z,1016.31
2023-01-25T16:00:50.442Z,1016.31
2023-01-25T16:01:50.303Z,1016.30
2023-01-25T16:02:50.306Z,1016.30
2023-01-25T16:03:50.292Z,1016.30
2023-01-25T16:04:50.325Z,1016.28
2023-01-25T16:05:51.757Z,1016.26
2023-01-25T16:06:50.274Z,1016.26
2023-01-25T16:07:50.241Z,1016.26
2023-01-25T16:08:50.274Z,1016.26
2023-01-25T16:09:50.247Z,1016.25
2023-01-25T16:10:50.244Z,1016.25
2023-01-25T16:11:50.200Z,1016.25
2023-01-25T16:12:50.215Z,1016.24
2023-01-25T16:13:50.179Z,1016.24
2023-01-25T16:14:50.184Z,1016.25
2023-01-25T16:15:50.184Z,1016.25
2023-01-25T16:16:50.254Z,1016.27
2023-01-25T16:17:50.144Z,1016.27
2023-01-25T16:18:50.143Z,1016.29
2023-01-25T16:19:50.117Z,1016.28
2023-01-25T16:20:50.176Z,1016.28
2023-01-25T16:21:50.132Z,1016.27
2023-01-25T16:22:50.159Z,1016.27
2023-01-25T16:23:50.170Z,1016.27
2023-01-25T16:24:50.088Z,1016.26
2023-01-25T16:25:50.099Z,1016.26
2023-01-25T16:26:50.072Z,1016.26
2023-01-25T16:27:50.029Z,1016.26
2023-01-25T16:28:50.052Z,1016.25
2023-01-25T16:29:50.066Z,1016.26
2023-01-25T16:30:50.250Z,1016.27
2023-01-25T16:31:50.268Z,1016.28
2023-01-25T16:32:50.056Z,1016.29
2023-01-25T16:33:50.029Z,1016.30
2023-01-25T16:34:50.033Z,1016.31
2023-01-25T16:35:50.010Z,1016.30